sensor_id;sensor_type;location;lat;lon;timestamp;P1;durP1;ratioP1;P2;durP2;ratioP2
70532;SDS011;58088;51.186;17.130;2023-03-23T00:02:14;30.00;;;15.40;;
70532;SDS011;58088;51.186;17.130;2023-03-23T00:04:41;33.80;;;16.60;;
70532;SDS011;58088;51.186;17.130;2023-03-23T00:07:08;30.50;;;16.40;;
70532;SDS011;58088;51.186;17.130;2023-03-23T00:09:34;36.60;;;17.50;;
70532;SDS011;58088;51.186;17.130;2023-03-23T00:12:07;33.20;;;16.90;;
70532;SDS011;58088;51.186;17.130;2023-03-23T00:14:34;31.90;;;16.90;;
70532;SDS011;58088;51.186;17.130;2023-03-23T00:17:08;28.70;;;16.00;;
70532;SDS011;58088;51.186;17.130;2023-03-23T00:19:37;33.40;;;15.90;;
70532;SDS011;58088;51.186;17.130;2023-03-23T00:22:14;30.70;;;15.50;;
70532;SDS011;58088;51.186;17.130;2023-03-23T00:24:42;35.20;;;17.20;;
70532;SDS011;58088;51.186;17.130;2023-03-23T00:27:10;29.90;;;15.70;;
70532;SDS011;58088;51.186;17.130;2023-03-23T00:29:41;32.20;;;15.20;;
70532;SDS011;58088;51.186;17.130;2023-03-23T00:32:12;30.80;;;15.90;;
70532;SDS011;58088;51.186;17.130;2023-03-23T00:34:40;35.40;;;17.90;;
70532;SDS011;58088;51.186;17.130;2023-03-23T00:37:10;34.70;;;16.60;;
70532;SDS011;58088;51.186;17.130;2023-03-23T00:39:38;34.20;;;17.30;;
70532;SDS011;58088;51.186;17.130;2023-03-23T00:42:05;32.30;;;16.00;;
70532;SDS011;58088;51.186;17.130;2023-03-23T00:44:33;33.80;;;17.90;;
70532;SDS011;58088;51.186;17.130;2023-03-23T00:47:02;36.80;;;18.90;;
70532;SDS011;58088;51.186;17.130;2023-03-23T00:49:31;39.60;;;18.60;;
70532;SDS011;58088;51.186;17.130;2023-03-23T00:52:01;35.40;;;18.70;;
70532;SDS011;58088;51.186;17.130;2023-03-23T00:54:29;36.30;;;19.10;;
70532;SDS011;58088;51.186;17.130;2023-03-23T00:56:55;36.90;;;18.80;;
70532;SDS011;58088;51.186;17.130;2023-03-23T00:59:22;36.20;;;18.90;;
70532;SDS011;58088;51.186;17.130;2023-03-23T01:01:50;39.50;;;19.30;;
70532;SDS011;58088;51.186;17.130;2023-03-23T01:04:19;37.60;;;19.30;;
70532;SDS011;58088;51.186;17.130;2023-03-23T01:06:49;33.20;;;17.40;;
70532;SDS011;58088;51.186;17.130;2023-03-23T01:09:18;37.90;;;18.60;;
70532;SDS011;58088;51.186;17.130;2023-03-23T01:11:49;40.60;;;19.90;;
70532;SDS011;58088;51.186;17.130;2023-03-23T01:14:18;36.30;;;17.90;;
70532;SDS011;58088;51.186;17.130;2023-03-23T01:16:45;39.40;;;18.60;;
70532;SDS011;58088;51.186;17.130;2023-03-23T01:19:11;38.50;;;19.20;;
70532;SDS011;58088;51.186;17.130;2023-03-23T01:21:38;37.00;;;19.30;;
70532;SDS011;58088;51.186;17.130;2023-03-23T01:24:05;33.50;;;17.80;;
70532;SDS011;58088;51.186;17.130;2023-03-23T01:26:31;32.00;;;17.50;;
70532;SDS011;58088;51.186;17.130;2023-03-23T01:28:58;37.30;;;19.10;;
70532;SDS011;58088;51.186;17.130;2023-03-23T01:31:26;32.50;;;17.20;;
70532;SDS011;58088;51.186;17.130;2023-03-23T01:33:52;35.80;;;18.00;;
70532;SDS011;58088;51.186;17.130;2023-03-23T01:36:26;36.90;;;18.60;;
70532;SDS011;58088;51.186;17.130;2023-03-23T01:39:00;35.40;;;18.40;;
70532;SDS011;58088;51.186;17.130;2023-03-23T01:41:31;30.50;;;15.90;;
70532;SDS011;58088;51.186;17.130;2023-03-23T01:44:06;31.10;;;16.10;;
70532;SDS011;58088;51.186;17.130;2023-03-23T01:47:04;39.20;;;19.10;;
70532;SDS011;58088;51.186;17.130;2023-03-23T01:49:36;35.70;;;19.50;;
70532;SDS011;58088;51.186;17.130;2023-03-23T01:52:12;38.20;;;18.60;;
70532;SDS011;58088;51.186;17.130;2023-03-23T01:54:46;37.60;;;19.70;;
70532;SDS011;58088;51.186;17.130;2023-03-23T01:57:18;39.40;;;18.50;;
70532;SDS011;58088;51.186;17.130;2023-03-23T01:59:52;37.00;;;19.00;;
70532;SDS011;58088;51.186;17.130;2023-03-23T02:02:26;37.90;;;18.90;;
70532;SDS011;58088;51.186;17.130;2023-03-23T02:04:58;34.40;;;18.10;;
70532;SDS011;58088;51.186;17.130;2023-03-23T02:07:28;34.50;;;18.40;;
70532;SDS011;58088;51.186;17.130;2023-03-23T02:09:56;35.30;;;18.60;;
70532;SDS011;58088;51.186;17.130;2023-03-23T02:12:22;39.90;;;20.30;;
70532;SDS011;58088;51.186;17.130;2023-03-23T02:14:49;37.70;;;20.80;;
70532;SDS011;58088;51.186;17.130;2023-03-23T02:23:31;39.90;;;20.60;;
70532;SDS011;58088;51.186;17.130;2023-03-23T02:29:12;43.20;;;21.70;;
70532;SDS011;58088;51.186;17.130;2023-03-23T02:32:32;38.90;;;20.70;;
70532;SDS011;58088;51.186;17.130;2023-03-23T02:34:59;42.70;;;21.30;;
70532;SDS011;58088;51.186;17.130;2023-03-23T02:37:50;42.80;;;21.30;;
70532;SDS011;58088;51.186;17.130;2023-03-23T02:40:25;41.90;;;21.70;;
70532;SDS011;58088;51.186;17.130;2023-03-23T02:42:58;40.60;;;22.90;;
70532;SDS011;58088;51.186;17.130;2023-03-23T02:45:29;37.20;;;19.70;;
70532;SDS011;58088;51.186;17.130;2023-03-23T02:47:57;39.80;;;21.40;;
70532;SDS011;58088;51.186;17.130;2023-03-23T02:50:27;43.40;;;22.40;;
70532;SDS011;58088;51.186;17.130;2023-03-23T02:52:56;41.60;;;22.20;;
70532;SDS011;58088;51.186;17.130;2023-03-23T02:55:26;46.00;;;22.60;;
70532;SDS011;58088;51.186;17.130;2023-03-23T02:57:56;42.80;;;23.60;;
70532;SDS011;58088;51.186;17.130;2023-03-23T03:00:23;42.50;;;21.80;;
70532;SDS011;58088;51.186;17.130;2023-03-23T03:02:53;45.90;;;23.60;;
70532;SDS011;58088;51.186;17.130;2023-03-23T03:08:49;34.30;;;19.30;;
70532;SDS011;58088;51.186;17.130;2023-03-23T03:11:21;36.20;;;19.40;;
70532;SDS011;58088;51.186;17.130;2023-03-23T03:14:00;34.00;;;19.20;;
70532;SDS011;58088;51.186;17.130;2023-03-23T03:19:18;30.40;;;15.20;;
70532;SDS011;58088;51.186;17.130;2023-03-23T03:21:53;27.50;;;14.60;;
70532;SDS011;58088;51.186;17.130;2023-03-23T03:24:29;26.10;;;13.80;;
70532;SDS011;58088;51.186;17.130;2023-03-23T03:26:58;26.90;;;13.50;;
70532;SDS011;58088;51.186;17.130;2023-03-23T03:29:35;19.90;;;11.20;;
70532;SDS011;58088;51.186;17.130;2023-03-23T03:32:11;25.30;;;13.30;;
70532;SDS011;58088;51.186;17.130;2023-03-23T03:34:40;24.10;;;13.10;;
70532;SDS011;58088;51.186;17.130;2023-03-23T03:37:07;23.20;;;13.10;;
70532;SDS011;58088;51.186;17.130;2023-03-23T03:39:35;24.40;;;13.20;;
70532;SDS011;58088;51.186;17.130;2023-03-23T03:42:04;24.40;;;12.90;;
70532;SDS011;58088;51.186;17.130;2023-03-23T03:44:33;24.40;;;12.70;;
70532;SDS011;58088;51.186;17.130;2023-03-23T03:46:59;23.30;;;12.60;;
70532;SDS011;58088;51.186;17.130;2023-03-23T03:49:26;23.10;;;13.00;;
70532;SDS011;58088;51.186;17.130;2023-03-23T03:51:53;24.70;;;12.80;;
70532;SDS011;58088;51.186;17.130;2023-03-23T03:54:40;22.70;;;12.50;;
70532;SDS011;58088;51.186;17.130;2023-03-23T03:57:07;24.20;;;12.90;;
70532;SDS011;58088;51.186;17.130;2023-03-23T04:00:04;22.90;;;12.60;;
70532;SDS011;58088;51.186;17.130;2023-03-23T04:02:46;24.50;;;13.50;;
70532;SDS011;58088;51.186;17.130;2023-03-23T04:05:17;25.10;;;13.40;;
70532;SDS011;58088;51.186;17.130;2023-03-23T04:07:46;25.30;;;13.00;;
70532;SDS011;58088;51.186;17.130;2023-03-23T04:10:15;22.30;;;13.30;;
70532;SDS011;58088;51.186;17.130;2023-03-23T04:12:42;25.40;;;14.20;;
70532;SDS011;58088;51.186;17.130;2023-03-23T04:15:35;25.70;;;13.90;;
70532;SDS011;58088;51.186;17.130;2023-03-23T04:18:02;24.50;;;13.80;;
70532;SDS011;58088;51.186;17.130;2023-03-23T04:20:28;25.80;;;14.10;;
70532;SDS011;58088;51.186;17.130;2023-03-23T04:22:55;26.70;;;13.90;;
70532;SDS011;58088;51.186;17.130;2023-03-23T04:25:23;23.60;;;13.00;;
70532;SDS011;58088;51.186;17.130;2023-03-23T04:27:51;22.90;;;13.10;;
70532;SDS011;58088;51.186;17.130;2023-03-23T04:30:23;23.30;;;13.40;;
70532;SDS011;58088;51.186;17.130;2023-03-23T04:33:11;25.00;;;12.70;;
70532;SDS011;58088;51.186;17.130;2023-03-23T04:35:43;21.90;;;12.20;;
70532;SDS011;58088;51.186;17.130;2023-03-23T04:38:21;23.90;;;12.50;;
70532;SDS011;58088;51.186;17.130;2023-03-23T04:40:53;19.10;;;10.90;;
70532;SDS011;58088;51.186;17.130;2023-03-23T04:43:34;24.60;;;12.00;;
70532;SDS011;58088;51.186;17.130;2023-03-23T04:46:27;25.30;;;11.90;;
70532;SDS011;58088;51.186;17.130;2023-03-23T04:48:57;22.50;;;11.80;;
70532;SDS011;58088;51.186;17.130;2023-03-23T04:51:31;21.80;;;11.90;;
70532;SDS011;58088;51.186;17.130;2023-03-23T04:54:04;18.40;;;10.90;;
70532;SDS011;58088;51.186;17.130;2023-03-23T04:56:31;19.20;;;10.80;;
70532;SDS011;58088;51.186;17.130;2023-03-23T04:59:02;17.70;;;10.10;;
70532;SDS011;58088;51.186;17.130;2023-03-23T05:01:40;19.00;;;10.70;;
70532;SDS011;58088;51.186;17.130;2023-03-23T05:04:17;18.50;;;10.10;;
70532;SDS011;58088;51.186;17.130;2023-03-23T05:06:51;19.00;;;9.40;;
70532;SDS011;58088;51.186;17.130;2023-03-23T05:09:22;15.10;;;8.10;;
70532;SDS011;58088;51.186;17.130;2023-03-23T05:11:48;12.20;;;6.70;;
70532;SDS011;58088;51.186;17.130;2023-03-23T05:14:15;11.20;;;6.00;;
70532;SDS011;58088;51.186;17.130;2023-03-23T05:16:42;14.90;;;6.30;;
70532;SDS011;58088;51.186;17.130;2023-03-23T05:19:13;11.20;;;5.40;;
70532;SDS011;58088;51.186;17.130;2023-03-23T05:21:40;12.40;;;5.70;;
70532;SDS011;58088;51.186;17.130;2023-03-23T05:24:06;14.00;;;6.40;;
70532;SDS011;58088;51.186;17.130;2023-03-23T05:26:32;11.50;;;5.90;;
70532;SDS011;58088;51.186;17.130;2023-03-23T05:29:04;9.30;;;4.60;;
70532;SDS011;58088;51.186;17.130;2023-03-23T05:31:42;8.10;;;4.40;;
70532;SDS011;58088;51.186;17.130;2023-03-23T05:34:08;11.10;;;4.50;;
70532;SDS011;58088;51.186;17.130;2023-03-23T05:36:45;9.70;;;4.20;;
70532;SDS011;58088;51.186;17.130;2023-03-23T05:39:44;10.40;;;4.40;;
70532;SDS011;58088;51.186;17.130;2023-03-23T05:42:16;11.20;;;4.30;;
70532;SDS011;58088;51.186;17.130;2023-03-23T05:44:49;10.10;;;4.60;;
70532;SDS011;58088;51.186;17.130;2023-03-23T05:47:16;8.40;;;4.20;;
70532;SDS011;58088;51.186;17.130;2023-03-23T05:49:47;8.20;;;3.70;;
70532;SDS011;58088;51.186;17.130;2023-03-23T05:52:16;8.70;;;3.80;;
70532;SDS011;58088;51.186;17.130;2023-03-23T05:54:42;7.90;;;3.90;;
70532;SDS011;58088;51.186;17.130;2023-03-23T05:57:09;8.30;;;3.80;;
70532;SDS011;58088;51.186;17.130;2023-03-23T05:59:49;6.70;;;3.60;;
70532;SDS011;58088;51.186;17.130;2023-03-23T06:02:20;7.80;;;3.50;;
70532;SDS011;58088;51.186;17.130;2023-03-23T06:04:47;10.10;;;3.80;;
70532;SDS011;58088;51.186;17.130;2023-03-23T06:07:25;9.90;;;3.90;;
70532;SDS011;58088;51.186;17.130;2023-03-23T06:09:58;8.70;;;4.10;;
70532;SDS011;58088;51.186;17.130;2023-03-23T06:12:24;9.00;;;4.00;;
70532;SDS011;58088;51.186;17.130;2023-03-23T06:15:03;10.30;;;3.90;;
70532;SDS011;58088;51.186;17.130;2023-03-23T06:18:04;7.70;;;3.40;;
70532;SDS011;58088;51.186;17.130;2023-03-23T06:20:45;6.40;;;3.30;;
70532;SDS011;58088;51.186;17.130;2023-03-23T06:23:32;8.50;;;3.10;;
70532;SDS011;58088;51.186;17.130;2023-03-23T06:26:04;5.70;;;2.90;;
70532;SDS011;58088;51.186;17.130;2023-03-23T06:28:33;7.90;;;3.10;;
70532;SDS011;58088;51.186;17.130;2023-03-23T06:31:02;9.20;;;3.40;;
70532;SDS011;58088;51.186;17.130;2023-03-23T06:33:36;6.70;;;3.20;;
70532;SDS011;58088;51.186;17.130;2023-03-23T06:36:22;6.60;;;3.20;;
70532;SDS011;58088;51.186;17.130;2023-03-23T06:39:11;7.70;;;3.00;;
70532;SDS011;58088;51.186;17.130;2023-03-23T06:41:57;7.30;;;3.10;;
70532;SDS011;58088;51.186;17.130;2023-03-23T06:44:26;8.10;;;3.10;;
70532;SDS011;58088;51.186;17.130;2023-03-23T06:46:53;9.80;;;3.50;;
70532;SDS011;58088;51.186;17.130;2023-03-23T06:49:32;5.60;;;2.60;;
70532;SDS011;58088;51.186;17.130;2023-03-23T06:52:05;7.90;;;3.10;;
70532;SDS011;58088;51.186;17.130;2023-03-23T06:54:32;8.90;;;2.70;;
70532;SDS011;58088;51.186;17.130;2023-03-23T06:57:00;6.70;;;2.90;;
70532;SDS011;58088;51.186;17.130;2023-03-23T06:59:26;6.80;;;3.10;;
70532;SDS011;58088;51.186;17.130;2023-03-23T07:01:53;9.00;;;2.90;;
70532;SDS011;58088;51.186;17.130;2023-03-23T07:04:19;7.10;;;2.60;;
70532;SDS011;58088;51.186;17.130;2023-03-23T07:06:55;7.10;;;2.50;;
70532;SDS011;58088;51.186;17.130;2023-03-23T07:09:22;6.90;;;2.50;;
70532;SDS011;58088;51.186;17.130;2023-03-23T07:11:48;6.20;;;2.70;;
70532;SDS011;58088;51.186;17.130;2023-03-23T07:14:29;5.50;;;2.50;;
70532;SDS011;58088;51.186;17.130;2023-03-23T07:16:56;9.30;;;2.80;;
70532;SDS011;58088;51.186;17.130;2023-03-23T07:19:23;7.40;;;3.00;;
70532;SDS011;58088;51.186;17.130;2023-03-23T07:21:49;11.50;;;2.70;;
70532;SDS011;58088;51.186;17.130;2023-03-23T07:24:16;8.80;;;2.70;;
70532;SDS011;58088;51.186;17.130;2023-03-23T07:27:03;6.60;;;2.70;;
70532;SDS011;58088;51.186;17.130;2023-03-23T07:29:30;8.10;;;2.80;;
70532;SDS011;58088;51.186;17.130;2023-03-23T07:32:05;6.30;;;2.90;;
70532;SDS011;58088;51.186;17.130;2023-03-23T07:34:32;6.00;;;2.60;;
70532;SDS011;58088;51.186;17.130;2023-03-23T07:37:19;4.80;;;2.40;;
70532;SDS011;58088;51.186;17.130;2023-03-23T07:39:47;6.70;;;2.50;;
70532;SDS011;58088;51.186;17.130;2023-03-23T07:42:14;6.10;;;2.60;;
70532;SDS011;58088;51.186;17.130;2023-03-23T07:44:46;5.80;;;2.70;;
70532;SDS011;58088;51.186;17.130;2023-03-23T07:47:13;7.20;;;2.60;;
70532;SDS011;58088;51.186;17.130;2023-03-23T07:49:41;7.20;;;2.50;;
70532;SDS011;58088;51.186;17.130;2023-03-23T07:52:40;8.50;;;3.10;;
70532;SDS011;58088;51.186;17.130;2023-03-23T07:55:09;5.80;;;2.50;;
70532;SDS011;58088;51.186;17.130;2023-03-23T07:58:18;8.00;;;2.40;;
70532;SDS011;58088;51.186;17.130;2023-03-23T08:00:47;6.10;;;2.40;;
70532;SDS011;58088;51.186;17.130;2023-03-23T08:03:16;7.70;;;2.90;;
70532;SDS011;58088;51.186;17.130;2023-03-23T08:05:57;7.10;;;3.20;;
70532;SDS011;58088;51.186;17.130;2023-03-23T08:08:43;5.80;;;2.70;;
70532;SDS011;58088;51.186;17.130;2023-03-23T08:11:34;6.40;;;2.70;;
70532;SDS011;58088;51.186;17.130;2023-03-23T08:14:26;7.10;;;2.40;;
70532;SDS011;58088;51.186;17.130;2023-03-23T08:17:12;8.00;;;3.10;;
70532;SDS011;58088;51.186;17.130;2023-03-23T08:19:53;5.90;;;2.50;;
70532;SDS011;58088;51.186;17.130;2023-03-23T08:22:42;7.70;;;3.30;;
70532;SDS011;58088;51.186;17.130;2023-03-23T08:25:39;7.90;;;3.20;;
70532;SDS011;58088;51.186;17.130;2023-03-23T08:28:24;7.80;;;2.90;;
70532;SDS011;58088;51.186;17.130;2023-03-23T08:31:11;6.60;;;3.10;;
70532;SDS011;58088;51.186;17.130;2023-03-23T08:33:58;6.80;;;3.10;;
70532;SDS011;58088;51.186;17.130;2023-03-23T08:36:56;8.30;;;3.10;;
70532;SDS011;58088;51.186;17.130;2023-03-23T08:39:41;7.50;;;3.60;;
70532;SDS011;58088;51.186;17.130;2023-03-23T08:42:11;7.70;;;3.00;;
70532;SDS011;58088;51.186;17.130;2023-03-23T08:45:00;5.40;;;2.60;;
70532;SDS011;58088;51.186;17.130;2023-03-23T08:47:50;6.40;;;2.60;;
70532;SDS011;58088;51.186;17.130;2023-03-23T08:50:27;9.20;;;3.50;;
70532;SDS011;58088;51.186;17.130;2023-03-23T08:53:16;7.00;;;3.20;;
70532;SDS011;58088;51.186;17.130;2023-03-23T08:55:43;6.20;;;2.70;;
70532;SDS011;58088;51.186;17.130;2023-03-23T08:58:30;6.60;;;3.00;;
70532;SDS011;58088;51.186;17.130;2023-03-23T09:01:16;5.90;;;2.20;;
70532;SDS011;58088;51.186;17.130;2023-03-23T09:03:42;4.60;;;2.00;;
70532;SDS011;58088;51.186;17.130;2023-03-23T09:06:27;4.80;;;2.20;;
70532;SDS011;58088;51.186;17.130;2023-03-23T09:08:54;6.50;;;2.00;;
70532;SDS011;58088;51.186;17.130;2023-03-23T09:11:24;9.40;;;2.20;;
70532;SDS011;58088;51.186;17.130;2023-03-23T09:13:51;5.60;;;2.60;;
70532;SDS011;58088;51.186;17.130;2023-03-23T09:16:17;3.80;;;2.00;;
70532;SDS011;58088;51.186;17.130;2023-03-23T09:18:44;5.10;;;2.10;;
70532;SDS011;58088;51.186;17.130;2023-03-23T09:21:10;5.10;;;2.10;;
70532;SDS011;58088;51.186;17.130;2023-03-23T09:23:36;5.50;;;2.10;;
70532;SDS011;58088;51.186;17.130;2023-03-23T09:26:03;6.10;;;2.30;;
70532;SDS011;58088;51.186;17.130;2023-03-23T09:28:29;5.10;;;2.00;;
70532;SDS011;58088;51.186;17.130;2023-03-23T09:30:57;5.30;;;2.10;;
70532;SDS011;58088;51.186;17.130;2023-03-23T09:33:25;5.20;;;2.40;;
70532;SDS011;58088;51.186;17.130;2023-03-23T09:35:51;5.90;;;2.60;;
70532;SDS011;58088;51.186;17.130;2023-03-23T09:38:18;6.10;;;2.50;;
70532;SDS011;58088;51.186;17.130;2023-03-23T09:47:34;6.70;;;2.10;;
70532;SDS011;58088;51.186;17.130;2023-03-23T09:50:15;4.30;;;1.80;;
70532;SDS011;58088;51.186;17.130;2023-03-23T09:53:23;5.60;;;2.20;;
70532;SDS011;58088;51.186;17.130;2023-03-23T09:55:54;3.90;;;1.80;;
70532;SDS011;58088;51.186;17.130;2023-03-23T09:58:30;3.10;;;1.40;;
70532;SDS011;58088;51.186;17.130;2023-03-23T10:01:08;4.60;;;1.20;;
70532;SDS011;58088;51.186;17.130;2023-03-23T10:03:41;4.00;;;1.50;;
70532;SDS011;58088;51.186;17.130;2023-03-23T10:06:11;2.90;;;1.00;;
70532;SDS011;58088;51.186;17.130;2023-03-23T10:09:02;3.30;;;1.40;;
70532;SDS011;58088;51.186;17.130;2023-03-23T10:11:49;6.70;;;1.40;;
70532;SDS011;58088;51.186;17.130;2023-03-23T10:20:24;2.20;;;0.80;;
70532;SDS011;58088;51.186;17.130;2023-03-23T10:31:58;1.90;;;0.80;;
70532;SDS011;58088;51.186;17.130;2023-03-23T10:37:25;2.70;;;0.90;;
70532;SDS011;58088;51.186;17.130;2023-03-23T10:39:55;4.90;;;0.80;;
70532;SDS011;58088;51.186;17.130;2023-03-23T10:42:33;2.50;;;1.00;;
70532;SDS011;58088;51.186;17.130;2023-03-23T10:45:19;2.00;;;0.60;;
70532;SDS011;58088;51.186;17.130;2023-03-23T10:48:17;1.80;;;0.70;;
70532;SDS011;58088;51.186;17.130;2023-03-23T10:50:57;2.90;;;1.00;;
70532;SDS011;58088;51.186;17.130;2023-03-23T10:53:36;2.20;;;0.90;;
70532;SDS011;58088;51.186;17.130;2023-03-23T10:56:24;3.40;;;1.00;;
70532;SDS011;58088;51.186;17.130;2023-03-23T10:58:55;2.00;;;0.80;;
70532;SDS011;58088;51.186;17.130;2023-03-23T11:01:30;1.90;;;0.70;;
70532;SDS011;58088;51.186;17.130;2023-03-23T11:03:59;3.50;;;0.80;;
70532;SDS011;58088;51.186;17.130;2023-03-23T11:06:29;2.80;;;0.70;;
70532;SDS011;58088;51.186;17.130;2023-03-23T11:09:14;1.40;;;0.70;;
70532;SDS011;58088;51.186;17.130;2023-03-23T11:11:49;2.10;;;0.80;;
70532;SDS011;58088;51.186;17.130;2023-03-23T11:16:57;1.60;;;0.60;;
70532;SDS011;58088;51.186;17.130;2023-03-23T11:19:27;2.00;;;0.70;;
70532;SDS011;58088;51.186;17.130;2023-03-23T11:24:36;2.40;;;0.90;;
70532;SDS011;58088;51.186;17.130;2023-03-23T11:27:07;1.50;;;0.70;;
70532;SDS011;58088;51.186;17.130;2023-03-23T11:29:36;3.40;;;0.70;;
70532;SDS011;58088;51.186;17.130;2023-03-23T11:32:12;3.60;;;0.90;;
70532;SDS011;58088;51.186;17.130;2023-03-23T11:37:35;2.30;;;0.90;;
70532;SDS011;58088;51.186;17.130;2023-03-23T11:42:38;1.50;;;0.70;;
70532;SDS011;58088;51.186;17.130;2023-03-23T11:45:24;3.00;;;0.70;;
70532;SDS011;58088;51.186;17.130;2023-03-23T11:54:00;2.90;;;0.80;;
70532;SDS011;58088;51.186;17.130;2023-03-23T11:56:37;2.10;;;0.70;;
70532;SDS011;58088;51.186;17.130;2023-03-23T11:59:13;2.50;;;0.80;;
70532;SDS011;58088;51.186;17.130;2023-03-23T12:01:57;1.90;;;0.80;;
70532;SDS011;58088;51.186;17.130;2023-03-23T12:08:03;1.60;;;0.60;;
70532;SDS011;58088;51.186;17.130;2023-03-23T12:14:14;2.20;;;0.80;;
70532;SDS011;58088;51.186;17.130;2023-03-23T12:16:56;3.00;;;1.00;;
70532;SDS011;58088;51.186;17.130;2023-03-23T12:23:03;2.50;;;1.10;;
70532;SDS011;58088;51.186;17.130;2023-03-23T12:26:15;2.70;;;0.90;;
70532;SDS011;58088;51.186;17.130;2023-03-23T12:29:16;2.10;;;0.90;;
70532;SDS011;58088;51.186;17.130;2023-03-23T12:32:38;2.20;;;0.80;;
70532;SDS011;58088;51.186;17.130;2023-03-23T12:35:52;2.70;;;1.10;;
70532;SDS011;58088;51.186;17.130;2023-03-23T12:46:14;2.90;;;0.90;;
70532;SDS011;58088;51.186;17.130;2023-03-23T12:49:45;7.90;;;1.10;;
70532;SDS011;58088;51.186;17.130;2023-03-23T12:52:32;3.60;;;1.00;;
70532;SDS011;58088;51.186;17.130;2023-03-23T12:55:14;3.10;;;0.90;;
70532;SDS011;58088;51.186;17.130;2023-03-23T13:03:53;2.40;;;0.90;;
70532;SDS011;58088;51.186;17.130;2023-03-23T13:06:45;3.70;;;0.90;;
70532;SDS011;58088;51.186;17.130;2023-03-23T13:09:48;4.50;;;1.30;;
70532;SDS011;58088;51.186;17.130;2023-03-23T13:12:21;2.80;;;0.90;;
70532;SDS011;58088;51.186;17.130;2023-03-23T13:23:44;2.40;;;1.10;;
70532;SDS011;58088;51.186;17.130;2023-03-23T13:26:20;2.50;;;1.10;;
70532;SDS011;58088;51.186;17.130;2023-03-23T13:31:41;3.20;;;1.20;;
70532;SDS011;58088;51.186;17.130;2023-03-23T13:34:30;3.70;;;1.00;;
70532;SDS011;58088;51.186;17.130;2023-03-23T13:37:03;3.60;;;1.20;;
70532;SDS011;58088;51.186;17.130;2023-03-23T13:39:37;3.70;;;1.30;;
70532;SDS011;58088;51.186;17.130;2023-03-23T13:50:01;4.00;;;1.40;;
70532;SDS011;58088;51.186;17.130;2023-03-23T13:55:21;3.60;;;1.60;;
70532;SDS011;58088;51.186;17.130;2023-03-23T14:05:48;4.10;;;1.50;;
70532;SDS011;58088;51.186;17.130;2023-03-23T14:10:49;5.10;;;1.20;;
70532;SDS011;58088;51.186;17.130;2023-03-23T14:13:35;4.10;;;1.60;;
70532;SDS011;58088;51.186;17.130;2023-03-23T14:16:05;3.60;;;1.30;;
70532;SDS011;58088;51.186;17.130;2023-03-23T14:18:59;4.20;;;1.60;;
70532;SDS011;58088;51.186;17.130;2023-03-23T14:21:39;3.00;;;1.20;;
70532;SDS011;58088;51.186;17.130;2023-03-23T14:24:15;3.60;;;1.50;;
70532;SDS011;58088;51.186;17.130;2023-03-23T14:26:43;4.50;;;1.40;;
70532;SDS011;58088;51.186;17.130;2023-03-23T14:29:12;4.30;;;1.10;;
70532;SDS011;58088;51.186;17.130;2023-03-23T14:31:40;3.90;;;1.20;;
70532;SDS011;58088;51.186;17.130;2023-03-23T14:34:14;3.10;;;1.50;;
70532;SDS011;58088;51.186;17.130;2023-03-23T14:36:44;5.60;;;1.30;;
70532;SDS011;58088;51.186;17.130;2023-03-23T14:39:25;3.50;;;1.40;;
70532;SDS011;58088;51.186;17.130;2023-03-23T14:41:56;3.80;;;0.90;;
70532;SDS011;58088;51.186;17.130;2023-03-23T14:44:31;4.60;;;1.50;;
70532;SDS011;58088;51.186;17.130;2023-03-23T14:47:18;4.90;;;1.50;;
70532;SDS011;58088;51.186;17.130;2023-03-23T14:49:53;3.90;;;1.40;;
70532;SDS011;58088;51.186;17.130;2023-03-23T14:52:24;3.90;;;1.40;;
70532;SDS011;58088;51.186;17.130;2023-03-23T14:54:53;4.50;;;1.10;;
70532;SDS011;58088;51.186;17.130;2023-03-23T14:59:51;3.70;;;1.30;;
70532;SDS011;58088;51.186;17.130;2023-03-23T15:04:58;4.90;;;1.40;;
70532;SDS011;58088;51.186;17.130;2023-03-23T15:07:34;5.00;;;1.30;;
70532;SDS011;58088;51.186;17.130;2023-03-23T15:10:06;6.10;;;2.50;;
70532;SDS011;58088;51.186;17.130;2023-03-23T15:12:35;7.00;;;2.50;;
70532;SDS011;58088;51.186;17.130;2023-03-23T15:15:27;6.10;;;2.20;;
70532;SDS011;58088;51.186;17.130;2023-03-23T15:17:57;3.20;;;1.30;;
70532;SDS011;58088;51.186;17.130;2023-03-23T15:20:31;2.80;;;1.30;;
70532;SDS011;58088;51.186;17.130;2023-03-23T15:23:17;3.30;;;1.60;;
70532;SDS011;58088;51.186;17.130;2023-03-23T15:25:51;4.10;;;1.60;;
70532;SDS011;58088;51.186;17.130;2023-03-23T15:28:30;3.80;;;1.70;;
70532;SDS011;58088;51.186;17.130;2023-03-23T15:31:05;4.40;;;1.60;;
70532;SDS011;58088;51.186;17.130;2023-03-23T15:33:37;3.60;;;1.50;;
70532;SDS011;58088;51.186;17.130;2023-03-23T15:36:15;3.60;;;1.40;;
70532;SDS011;58088;51.186;17.130;2023-03-23T15:38:46;4.20;;;1.60;;
70532;SDS011;58088;51.186;17.130;2023-03-23T15:41:24;5.90;;;1.60;;
70532;SDS011;58088;51.186;17.130;2023-03-23T15:43:56;4.20;;;1.60;;
70532;SDS011;58088;51.186;17.130;2023-03-23T15:46:26;3.40;;;1.10;;
70532;SDS011;58088;51.186;17.130;2023-03-23T15:51:29;4.60;;;1.40;;
70532;SDS011;58088;51.186;17.130;2023-03-23T15:53:57;5.80;;;1.90;;
70532;SDS011;58088;51.186;17.130;2023-03-23T15:56:25;3.20;;;1.30;;
70532;SDS011;58088;51.186;17.130;2023-03-23T15:58:52;4.70;;;1.30;;
70532;SDS011;58088;51.186;17.130;2023-03-23T16:01:29;3.30;;;1.40;;
70532;SDS011;58088;51.186;17.130;2023-03-23T16:04:00;4.40;;;1.60;;
70532;SDS011;58088;51.186;17.130;2023-03-23T16:06:40;2.60;;;1.20;;
70532;SDS011;58088;51.186;17.130;2023-03-23T16:09:17;4.20;;;1.60;;
70532;SDS011;58088;51.186;17.130;2023-03-23T16:11:45;4.30;;;1.40;;
70532;SDS011;58088;51.186;17.130;2023-03-23T16:14:12;3.70;;;1.50;;
70532;SDS011;58088;51.186;17.130;2023-03-23T16:16:48;3.70;;;1.40;;
70532;SDS011;58088;51.186;17.130;2023-03-23T16:19:17;3.60;;;1.50;;
70532;SDS011;58088;51.186;17.130;2023-03-23T16:21:48;3.70;;;1.20;;
70532;SDS011;58088;51.186;17.130;2023-03-23T16:24:15;4.10;;;1.50;;
70532;SDS011;58088;51.186;17.130;2023-03-23T16:26:41;4.20;;;1.50;;
70532;SDS011;58088;51.186;17.130;2023-03-23T16:29:12;4.40;;;1.30;;
70532;SDS011;58088;51.186;17.130;2023-03-23T16:31:41;4.00;;;1.60;;
70532;SDS011;58088;51.186;17.130;2023-03-23T16:34:07;4.50;;;1.60;;
70532;SDS011;58088;51.186;17.130;2023-03-23T16:36:34;4.30;;;1.80;;
70532;SDS011;58088;51.186;17.130;2023-03-23T16:39:01;6.30;;;1.80;;
70532;SDS011;58088;51.186;17.130;2023-03-23T16:41:28;5.10;;;1.80;;
70532;SDS011;58088;51.186;17.130;2023-03-23T16:43:54;4.90;;;1.90;;
70532;SDS011;58088;51.186;17.130;2023-03-23T16:46:20;5.10;;;2.30;;
70532;SDS011;58088;51.186;17.130;2023-03-23T16:48:47;4.60;;;2.20;;
70532;SDS011;58088;51.186;17.130;2023-03-23T16:51:13;7.20;;;2.00;;
70532;SDS011;58088;51.186;17.130;2023-03-23T16:53:40;5.80;;;1.80;;
70532;SDS011;58088;51.186;17.130;2023-03-23T16:56:06;5.40;;;1.80;;
70532;SDS011;58088;51.186;17.130;2023-03-23T16:58:32;4.50;;;1.60;;
70532;SDS011;58088;51.186;17.130;2023-03-23T17:01:00;4.90;;;2.00;;
70532;SDS011;58088;51.186;17.130;2023-03-23T17:03:27;5.40;;;1.90;;
70532;SDS011;58088;51.186;17.130;2023-03-23T17:05:53;6.10;;;1.80;;
70532;SDS011;58088;51.186;17.130;2023-03-23T17:08:20;4.00;;;1.80;;
70532;SDS011;58088;51.186;17.130;2023-03-23T17:10:47;4.80;;;2.00;;